createdAt,value
2018-09-06T09:09:35.630Z,19.90
2018-09-06T09:12:38.736Z,20.00
2018-09-06T09:15:42.022Z,20.10
2018-09-06T09:18:45.183Z,20.20
2018-09-06T09:21:48.345Z,20.50
2018-09-06T09:24:51.424Z,20.60
2018-09-06T09:27:55.341Z,20.50
2018-09-06T09:30:58.576Z,20.70
2018-09-06T09:34:01.693Z,20.70
2018-09-06T09:37:04.778Z,20.90
2018-09-06T09:40:07.984Z,21.00
2018-09-06T09:43:11.236Z,21.20
2018-09-06T09:49:16.737Z,21.30
2018-09-06T09:52:21.111Z,21.40
2018-09-06T09:55:24.206Z,21.50
2018-09-06T09:58:27.314Z,21.70
2018-09-06T10:01:35.895Z,21.80
2018-09-06T10:04:43.218Z,21.90
2018-09-06T10:07:51.874Z,21.90
2018-09-06T10:10:55.120Z,21.90
2018-09-06T10:13:58.247Z,21.90
2018-09-06T10:17:01.345Z,22.00
2018-09-06T10:20:04.494Z,22.30
2018-09-06T10:23:07.718Z,22.20
2018-09-06T10:29:39.235Z,22.20
2018-09-06T10:32:42.429Z,22.30
2018-09-06T10:35:45.518Z,22.40
2018-09-06T10:38:48.612Z,22.60
2018-09-06T10:41:51.743Z,22.70
2018-09-06T10:44:54.912Z,22.80
2018-09-06T10:47:58.070Z,22.70
2018-09-06T10:51:01.275Z,22.90
2018-09-06T10:54:04.367Z,23.00
2018-09-06T10:57:07.862Z,23.00
2018-09-06T11:00:10.980Z,23.20
2018-09-06T11:03:14.099Z,23.40
2018-09-06T11:06:17.255Z,23.80
2018-09-06T11:09:20.367Z,23.90
2018-09-06T11:12:23.491Z,24.20
2018-09-06T11:15:26.602Z,24.50
2018-09-06T11:18:29.866Z,24.60
2018-09-06T11:21:33.077Z,24.90
2018-09-06T11:24:36.060Z,24.80
2018-09-06T11:27:39.241Z,25.10
2018-09-06T11:30:42.252Z,25.50
2018-09-06T11:33:45.353Z,25.90
2018-09-06T11:36:48.423Z,26.20
2018-09-06T11:39:51.571Z,26.40
2018-09-06T11:42:54.661Z,26.50
2018-09-06T11:45:57.763Z,26.70
2018-09-06T11:49:00.867Z,26.90
2018-09-06T11:52:04.139Z,27.30
2018-09-06T11:55:08.311Z,27.40
2018-09-06T11:58:11.482Z,27.50
2018-09-06T12:01:14.623Z,27.50
2018-09-06T12:04:17.760Z,27.00
2018-09-06T12:07:20.846Z,26.90
2018-09-06T12:10:23.951Z,27.20
2018-09-06T12:13:27.059Z,27.60
2018-09-06T12:16:30.171Z,27.50
2018-09-06T12:19:33.353Z,27.50
2018-09-06T12:22:36.395Z,27.30
2018-09-06T12:25:39.542Z,26.80
2018-09-06T12:28:42.605Z,27.20
2018-09-06T12:31:45.706Z,26.90
2018-09-06T12:34:48.854Z,26.40
2018-09-06T12:37:51.946Z,26.60
2018-09-06T12:40:55.073Z,26.70
2018-09-06T12:43:58.412Z,26.80
2018-09-06T12:47:01.799Z,26.70
2018-09-06T12:50:04.915Z,27.30
2018-09-06T12:53:08.007Z,27.90
2018-09-06T12:56:11.115Z,28.20
2018-09-06T12:59:14.311Z,28.50
2018-09-06T13:02:17.405Z,28.40
2018-09-06T13:05:20.497Z,28.20
2018-09-06T13:08:23.615Z,28.50
2018-09-06T13:11:26.724Z,29.00
2018-09-06T13:14:29.820Z,29.20
2018-09-06T13:17:32.903Z,29.40
2018-09-06T13:20:36.071Z,29.60
2018-09-06T13:23:39.155Z,30.00
2018-09-06T13:26:42.256Z,30.20
2018-09-06T13:29:45.388Z,30.20
2018-09-06T13:32:48.501Z,30.40
2018-09-06T13:35:51.664Z,30.40
2018-09-06T13:38:54.803Z,30.60
2018-09-06T13:41:58.339Z,30.40
2018-09-06T13:45:01.460Z,30.60
2018-09-06T13:48:04.559Z,30.80
2018-09-06T13:51:07.739Z,30.90
2018-09-06T13:54:10.904Z,30.70
2018-09-06T13:57:13.984Z,30.10
2018-09-06T14:00:17.247Z,29.60
2018-09-06T14:03:20.320Z,29.70
2018-09-06T14:06:23.407Z,29.70
2018-09-06T14:09:26.588Z,29.40
2018-09-06T14:12:29.716Z,29.40
2018-09-06T14:15:32.827Z,29.40
2018-09-06T14:18:35.967Z,29.50
2018-09-06T14:21:39.139Z,29.40
2018-09-06T14:24:42.217Z,29.20
2018-09-06T14:27:45.426Z,29.10
2018-09-06T14:30:48.613Z,28.90
2018-09-06T14:33:51.962Z,29.00
2018-09-06T14:36:55.075Z,28.60
2018-09-06T14:39:58.300Z,28.50
2018-09-06T14:43:02.511Z,28.40
2018-09-06T14:46:05.606Z,28.30
2018-09-06T14:49:09.841Z,28.20
2018-09-06T14:52:12.935Z,28.00
2018-09-06T14:55:16.134Z,27.80
2018-09-06T14:58:19.238Z,27.80
2018-09-06T15:01:22.433Z,27.60
2018-09-06T15:04:25.468Z,27.70
2018-09-06T15:07:29.680Z,27.80
2018-09-06T15:10:32.802Z,27.80
2018-09-06T15:13:36.166Z,27.70
2018-09-06T15:16:39.432Z,27.60
2018-09-06T15:19:42.701Z,27.90
2018-09-06T15:22:45.829Z,27.60
2018-09-06T15:25:48.937Z,27.40
2018-09-06T15:28:52.234Z,27.40
2018-09-06T15:31:55.929Z,27.50
2018-09-06T15:34:59.162Z,27.40
2018-09-06T15:38:02.326Z,27.20
2018-09-06T15:41:05.469Z,27.30
2018-09-06T15:44:08.717Z,27.50
2018-09-06T15:47:11.884Z,27.50
2018-09-06T15:50:14.984Z,27.50
2018-09-06T15:53:18.074Z,27.80
2018-09-06T15:56:21.208Z,28.30
2018-09-06T15:59:24.292Z,28.70
2018-09-06T16:02:27.472Z,29.10
2018-09-06T16:05:30.575Z,29.30
2018-09-06T16:08:33.767Z,29.10
2018-09-06T16:11:36.951Z,28.80
2018-09-06T16:14:40.244Z,28.50
2018-09-06T16:17:44.023Z,27.90
2018-09-06T16:20:48.248Z,27.30
2018-09-06T16:23:51.364Z,27.00
2018-09-06T16:26:54.603Z,26.70
2018-09-06T16:29:57.691Z,26.50
2018-09-06T16:33:00.811Z,26.40
2018-09-06T16:36:03.937Z,26.20
2018-09-06T16:39:08.479Z,26.00
2018-09-06T16:42:11.576Z,25.90
2018-09-06T16:45:14.711Z,25.60
2018-09-06T16:48:17.825Z,25.50
2018-09-06T16:51:21.004Z,25.50
2018-09-06T16:54:24.095Z,25.40
2018-09-06T16:57:27.179Z,25.40
2018-09-06T17:00:30.324Z,25.30
2018-09-06T17:03:33.413Z,25.20
2018-09-06T17:06:36.550Z,25.10
2018-09-06T17:09:39.679Z,25.10
2018-09-06T17:12:42.887Z,25.00
2018-09-06T17:15:45.995Z,24.90
2018-09-06T17:18:49.067Z,24.90
2018-09-06T17:21:52.178Z,24.80
2018-09-06T17:24:55.343Z,24.80
2018-09-06T17:27:58.428Z,24.70
2018-09-06T17:31:01.607Z,24.60
2018-09-06T17:34:04.814Z,24.50
2018-09-06T17:37:07.962Z,24.40
2018-09-06T17:40:11.128Z,24.40
2018-09-06T17:43:14.219Z,24.30
2018-09-06T17:46:17.404Z,24.20
2018-09-06T17:49:20.554Z,24.10
2018-09-06T17:52:23.766Z,24.10
2018-09-06T17:55:26.902Z,23.80
2018-09-06T17:58:30.095Z,23.40
2018-09-06T18:01:35.662Z,23.30
2018-09-06T18:04:38.759Z,23.30
2018-09-06T18:07:42.052Z,23.20
2018-09-06T18:10:45.505Z,23.30
2018-09-06T18:13:48.772Z,23.30
2018-09-06T18:16:51.948Z,23.20
2018-09-06T18:19:55.067Z,23.00
2018-09-06T18:22:58.312Z,22.80
2018-09-06T18:26:01.463Z,22.90
2018-09-06T18:29:04.611Z,22.90
2018-09-06T18:32:07.804Z,22.70
2018-09-06T18:35:12.039Z,22.60
2018-09-06T18:38:15.220Z,22.50
2018-09-06T18:41:18.542Z,22.50
2018-09-06T18:44:21.644Z,22.30
2018-09-06T18:47:24.824Z,21.90
2018-09-06T18:50:27.971Z,22.00
2018-09-06T18:53:31.084Z,22.00
2018-09-06T18:56:34.304Z,21.80
2018-09-06T18:59:37.572Z,21.70
2018-09-06T19:02:40.732Z,21.60
2018-09-06T19:05:43.892Z,21.70
2018-09-06T19:08:47.112Z,22.10
2018-09-06T19:11:50.215Z,21.70
2018-09-06T19:14:53.353Z,21.70
2018-09-06T19:17:56.468Z,21.70
2018-09-06T19:20:59.655Z,21.70
2018-09-06T19:24:03.007Z,21.70
2018-09-06T19:27:06.459Z,21.70
2018-09-06T19:30:09.591Z,21.70
2018-09-06T19:33:12.727Z,21.60
2018-09-06T19:36:15.840Z,21.60
2018-09-06T19:39:19.028Z,21.50
2018-09-06T19:42:22.340Z,21.50
2018-09-06T19:45:25.497Z,21.40
2018-09-06T19:48:28.700Z,21.40
2018-09-06T19:51:31.820Z,21.30
2018-09-06T19:54:34.962Z,21.30
2018-09-06T19:57:38.115Z,21.30
2018-09-06T20:00:41.312Z,21.20
2018-09-06T20:03:45.082Z,21.00
2018-09-06T20:06:48.442Z,20.70
2018-09-06T20:09:51.611Z,20.80
2018-09-06T20:12:54.846Z,20.80
2018-09-06T20:15:58.207Z,20.90
2018-09-06T20:19:01.361Z,20.80
2018-09-06T20:22:07.421Z,20.80
2018-09-06T20:25:10.676Z,20.70
2018-09-06T20:28:15.836Z,20.70
2018-09-06T20:31:18.975Z,20.90
2018-09-06T20:34:22.116Z,20.90
2018-09-06T20:37:25.251Z,20.80
2018-09-06T20:40:28.431Z,20.80
2018-09-06T20:43:32.160Z,20.90
2018-09-06T20:46:35.277Z,20.90
2018-09-06T20:49:38.373Z,20.80
2018-09-06T20:52:41.467Z,20.70
2018-09-06T20:55:44.669Z,20.70
2018-09-06T20:58:47.763Z,20.60
2018-09-06T21:01:50.876Z,20.60
2018-09-06T21:04:54.578Z,20.30
2018-09-06T21:07:57.789Z,20.20
2018-09-06T21:11:01.167Z,20.20
2018-09-06T21:14:04.347Z,20.20
2018-09-06T21:17:07.630Z,20.10
2018-09-06T21:20:10.727Z,20.20
2018-09-06T21:23:13.822Z,20.10
2018-09-06T21:26:16.916Z,20.00
2018-09-06T21:29:19.987Z,20.00
2018-09-06T21:32:23.097Z,20.00
2018-09-06T21:35:26.236Z,19.90
2018-09-06T21:38:29.308Z,19.90
2018-09-06T21:41:32.427Z,19.80
2018-09-06T21:44:35.517Z,19.70
2018-09-06T21:47:38.626Z,19.80
2018-09-06T21:50:41.731Z,19.70
2018-09-06T21:53:44.822Z,19.70
2018-09-06T21:56:48.066Z,19.70
2018-09-06T21:59:51.143Z,19.70
2018-09-06T22:02:59.536Z,19.60
2018-09-06T22:06:02.638Z,19.60
2018-09-06T22:09:09.560Z,19.50
2018-09-06T22:12:16.695Z,19.60
2018-09-06T22:15:20.019Z,19.50
2018-09-06T22:18:23.144Z,19.50
2018-09-06T22:21:26.364Z,19.50
2018-09-06T22:24:29.459Z,19.60
2018-09-06T22:27:32.567Z,19.60
2018-09-06T22:30:35.687Z,19.60
2018-09-06T22:33:38.823Z,19.50
2018-09-06T22:36:41.906Z,19.40
2018-09-06T22:39:45.083Z,19.40
2018-09-06T22:42:48.188Z,19.30
2018-09-06T22:45:51.339Z,19.30
2018-09-06T22:48:54.468Z,19.30
2018-09-06T22:51:57.540Z,19.30
2018-09-06T22:55:00.635Z,19.20
2018-09-06T22:58:03.880Z,19.10
2018-09-06T23:01:07.130Z,19.20
2018-09-06T23:04:10.303Z,19.20
2018-09-06T23:07:13.449Z,19.20
2018-09-06T23:10:16.684Z,19.20
2018-09-06T23:13:19.760Z,19.30
2018-09-06T23:16:22.895Z,19.20
2018-09-06T23:19:25.992Z,19.20
2018-09-06T23:22:29.059Z,19.10
2018-09-06T23:25:32.153Z,19.10
2018-09-06T23:28:35.490Z,19.00
2018-09-06T23:31:38.564Z,19.00
2018-09-06T23:34:41.800Z,19.00
2018-09-06T23:37:44.943Z,19.00
2018-09-06T23:40:53.499Z,19.00
2018-09-06T23:43:56.595Z,19.00
2018-09-06T23:46:59.927Z,19.00
2018-09-06T23:50:03.072Z,19.00
2018-09-06T23:53:06.330Z,19.00
2018-09-06T23:56:09.515Z,18.90
2018-09-06T23:59:12.710Z,19.00
